createdAt,value
2023-04-27T00:00:42.017Z,2.20
2023-04-27T00:03:46.573Z,2.17
2023-04-27T00:06:50.649Z,2.11
2023-04-27T00:09:54.236Z,2.08
2023-04-27T00:12:57.798Z,2.01
2023-04-27T00:16:03.985Z,1.98
2023-04-27T00:19:09.056Z,1.88
2023-04-27T00:22:12.720Z,1.83
2023-04-27T00:25:16.522Z,1.78
2023-04-27T00:28:20.265Z,1.75
2023-04-27T00:31:25.346Z,1.71
2023-04-27T00:34:29.005Z,1.65
2023-04-27T00:37:32.671Z,1.61
2023-04-27T00:40:36.346Z,1.58
2023-04-27T00:43:44.713Z,1.57
2023-04-27T00:46:49.741Z,1.54
2023-04-27T00:49:53.516Z,1.48
2023-04-27T00:52:58.172Z,1.43
2023-04-27T00:56:01.994Z,1.40
2023-04-27T00:59:05.708Z,1.40
2023-04-27T01:02:12.646Z,1.44
2023-04-27T01:05:16.752Z,1.48
2023-04-27T01:08:20.533Z,1.49
2023-04-27T01:11:24.109Z,1.47
2023-04-27T01:14:27.927Z,1.53
2023-04-27T01:17:32.939Z,1.51
2023-04-27T01:20:36.576Z,1.52
2023-04-27T01:23:41.572Z,1.51
2023-04-27T01:26:45.136Z,1.35
2023-04-27T01:29:48.934Z,1.24
2023-04-27T01:32:52.585Z,1.33
2023-04-27T01:35:56.238Z,1.27
2023-04-27T01:39:01.214Z,1.27
2023-04-27T01:42:05.126Z,1.22
2023-04-27T01:45:10.788Z,1.27
2023-04-27T01:48:14.500Z,1.17
2023-04-27T01:51:18.062Z,1.11
2023-04-27T01:54:23.092Z,1.12
2023-04-27T01:57:26.929Z,1.04
2023-04-27T02:00:30.793Z,1.02
2023-04-27T02:03:34.611Z,0.99
2023-04-27T02:06:38.369Z,0.97
2023-04-27T02:09:43.296Z,1.01
2023-04-27T02:12:46.916Z,0.94
2023-04-27T02:15:50.655Z,0.99
2023-04-27T02:18:54.641Z,0.94
2023-04-27T02:21:58.569Z,0.95
2023-04-27T02:25:03.637Z,0.93
2023-04-27T02:28:07.266Z,0.89
2023-04-27T02:31:12.345Z,0.92
2023-04-27T02:34:16.001Z,0.82
2023-04-27T02:37:19.614Z,0.80
2023-04-27T02:40:24.785Z,0.76
2023-04-27T02:43:28.569Z,0.71
2023-04-27T02:46:32.598Z,0.68
2023-04-27T02:49:38.032Z,0.62
2023-04-27T02:52:41.815Z,0.60
2023-04-27T02:55:49.262Z,0.62
2023-04-27T02:58:52.837Z,0.62
2023-04-27T03:01:56.399Z,0.61
2023-04-27T03:05:00.064Z,0.59
2023-04-27T03:08:05.252Z,0.53
2023-04-27T03:11:10.603Z,0.43
2023-04-27T03:14:14.458Z,0.56
2023-04-27T03:17:18.050Z,0.51
2023-04-27T03:20:23.090Z,0.53
2023-04-27T03:23:26.608Z,0.56
2023-04-27T03:26:31.701Z,0.54
2023-04-27T03:29:35.333Z,0.50
2023-04-27T03:32:39.037Z,0.48
2023-04-27T03:35:42.801Z,0.41
2023-04-27T03:38:46.351Z,0.36
2023-04-27T03:41:51.505Z,0.33
2023-04-27T03:44:55.115Z,0.29
2023-04-27T03:47:58.786Z,0.30
2023-04-27T03:51:02.594Z,0.28
2023-04-27T03:54:06.556Z,0.22
2023-04-27T03:57:11.588Z,0.15
2023-04-27T04:00:16.622Z,0.19
2023-04-27T04:03:20.472Z,0.21
2023-04-27T04:06:24.145Z,0.23
2023-04-27T04:09:27.784Z,0.25
2023-04-27T04:12:32.734Z,0.22
2023-04-27T04:15:36.453Z,0.25
2023-04-27T04:18:40.044Z,0.19
2023-04-27T04:21:43.765Z,0.27
2023-04-27T04:24:47.382Z,0.38
2023-04-27T04:27:52.404Z,0.39
2023-04-27T04:30:56.871Z,0.32
2023-04-27T04:34:01.516Z,0.41
2023-04-27T04:37:05.525Z,0.36
2023-04-27T04:40:10.990Z,0.42
2023-04-27T04:43:16.192Z,0.46
2023-04-27T04:46:20.274Z,0.56
2023-04-27T04:49:24.159Z,0.70
2023-04-27T04:52:27.946Z,0.76
2023-04-27T04:55:31.648Z,0.85
2023-04-27T04:58:36.644Z,0.94
2023-04-27T05:01:40.324Z,1.02
2023-04-27T05:04:44.016Z,1.05
2023-04-27T05:07:47.906Z,1.13
2023-04-27T05:10:51.911Z,1.24
2023-04-27T05:13:56.942Z,1.38
2023-04-27T05:17:00.528Z,1.48
2023-04-27T05:20:05.357Z,1.48
2023-04-27T05:23:09.102Z,1.65
2023-04-27T05:26:16.817Z,1.80
2023-04-27T05:29:21.962Z,2.01
2023-04-27T05:32:25.793Z,2.17
2023-04-27T05:35:29.847Z,2.48
2023-04-27T05:38:36.178Z,2.73
2023-04-27T05:41:40.025Z,2.65
2023-04-27T05:44:45.079Z,2.63
2023-04-27T05:47:48.778Z,2.46
2023-04-27T05:51:01.805Z,2.93
2023-04-27T05:54:05.731Z,3.41
2023-04-27T05:57:09.876Z,3.38
2023-04-27T06:00:17.666Z,3.78
2023-04-27T06:03:21.746Z,3.91
2023-04-27T06:06:26.367Z,4.37
2023-04-27T06:09:31.425Z,4.33
2023-04-27T06:12:34.988Z,4.36
2023-04-27T06:15:40.185Z,4.52
2023-04-27T06:18:44.312Z,4.74
2023-04-27T06:21:48.042Z,4.81
2023-04-27T06:24:51.629Z,4.86
2023-04-27T06:27:55.374Z,5.11
2023-04-27T06:31:00.370Z,5.21
2023-04-27T06:34:04.579Z,5.37
2023-04-27T06:37:08.907Z,5.53
2023-04-27T06:40:13.530Z,5.64
2023-04-27T06:43:17.332Z,5.69
2023-04-27T06:46:22.513Z,5.57
2023-04-27T06:49:26.826Z,5.92
2023-04-27T06:52:33.381Z,6.16
2023-04-27T06:55:37.312Z,6.44
2023-04-27T06:58:41.159Z,6.66
2023-04-27T07:01:46.309Z,7.01
2023-04-27T07:04:50.329Z,6.55
2023-04-27T07:07:54.193Z,6.75
2023-04-27T07:10:58.090Z,7.02
2023-04-27T07:14:02.680Z,7.12
2023-04-27T07:17:07.901Z,6.89
2023-04-27T07:20:12.003Z,6.86
2023-04-27T07:23:16.546Z,6.75
2023-04-27T07:26:20.104Z,7.18
2023-04-27T07:29:27.425Z,7.51
2023-04-27T07:32:32.695Z,7.63
2023-04-27T07:35:36.481Z,7.78
2023-04-27T07:38:40.093Z,7.62
2023-04-27T07:41:43.693Z,7.97
2023-04-27T07:44:47.493Z,8.06
2023-04-27T07:47:53.529Z,7.91
2023-04-27T07:50:57.461Z,7.55
2023-04-27T07:54:02.225Z,7.65
2023-04-27T07:57:10.522Z,7.96
2023-04-27T08:00:16.165Z,7.70
2023-04-27T08:03:22.913Z,8.33
2023-04-27T08:06:28.767Z,8.10
2023-04-27T08:09:33.418Z,7.80
2023-04-27T08:12:37.445Z,8.20
2023-04-27T08:15:41.752Z,8.37
2023-04-27T08:18:47.361Z,8.57
2023-04-27T08:21:51.173Z,8.04
2023-04-27T08:24:54.880Z,8.68
2023-04-27T08:27:58.507Z,8.48
2023-04-27T08:31:02.144Z,8.80
2023-04-27T08:34:07.552Z,9.69
2023-04-27T08:37:11.291Z,9.70
2023-04-27T08:40:15.597Z,9.58
2023-04-27T08:43:19.224Z,9.71
2023-04-27T08:46:25.254Z,9.99
2023-04-27T08:49:30.426Z,9.67
2023-04-27T08:52:34.213Z,9.09
2023-04-27T08:55:37.801Z,9.49
2023-04-27T08:58:41.720Z,10.35
2023-04-27T09:01:47.109Z,9.52
2023-04-27T09:04:52.528Z,10.42
2023-04-27T09:08:05.301Z,10.16
2023-04-27T09:11:09.128Z,10.40
2023-04-27T09:14:21.506Z,10.35
2023-04-27T09:17:28.280Z,9.69
2023-04-27T09:20:33.737Z,9.17
2023-04-27T09:23:39.569Z,10.04
2023-04-27T09:26:43.294Z,10.15
2023-04-27T09:29:47.016Z,10.64
2023-04-27T09:32:53.825Z,11.19
2023-04-27T09:36:00.597Z,10.35
2023-04-27T09:39:06.121Z,10.52
2023-04-27T09:42:10.015Z,10.10
2023-04-27T09:45:14.678Z,10.24
2023-04-27T09:48:19.631Z,9.94
2023-04-27T09:51:24.590Z,9.65
2023-04-27T09:54:33.259Z,10.04
2023-04-27T09:57:46.345Z,10.00
2023-04-27T10:01:07.305Z,9.73
2023-04-27T10:04:39.419Z,10.18
2023-04-27T10:07:46.754Z,9.88
2023-04-27T10:10:51.942Z,10.04
2023-04-27T10:13:56.662Z,10.62
2023-04-27T10:17:01.159Z,10.10
2023-04-27T10:20:09.121Z,9.33
2023-04-27T10:23:25.549Z,9.54
2023-04-27T10:26:29.937Z,9.61
2023-04-27T10:29:42.062Z,9.79
2023-04-27T10:32:54.286Z,9.19
2023-04-27T10:36:00.524Z,9.41
2023-04-27T10:39:16.964Z,9.34
2023-04-27T10:42:29.989Z,8.95
2023-04-27T10:45:36.008Z,9.48
2023-04-27T10:48:41.248Z,9.70
2023-04-27T10:51:44.964Z,9.13
2023-04-27T10:54:49.969Z,9.38
2023-04-27T10:57:56.384Z,9.87
2023-04-27T11:01:00.140Z,10.43
2023-04-27T11:04:05.501Z,10.07
2023-04-27T11:07:10.555Z,9.92
2023-04-27T11:10:19.730Z,9.82
2023-04-27T11:13:25.920Z,9.82
2023-04-27T11:16:32.037Z,10.14
2023-04-27T11:19:47.533Z,10.62
2023-04-27T11:22:51.452Z,10.18
2023-04-27T11:25:56.979Z,10.55
2023-04-27T11:29:05.559Z,10.10
2023-04-27T11:32:09.481Z,10.43
2023-04-27T11:35:13.778Z,10.61
2023-04-27T11:38:18.961Z,10.45
2023-04-27T11:41:24.414Z,11.06
2023-04-27T11:44:28.778Z,11.16
2023-04-27T11:47:34.364Z,11.08
2023-04-27T11:50:38.504Z,10.93
2023-04-27T11:53:42.857Z,10.69
2023-04-27T11:56:47.890Z,11.04
2023-04-27T11:59:52.025Z,10.82
2023-04-27T12:02:55.887Z,11.63
2023-04-27T12:06:16.088Z,11.33
2023-04-27T12:09:24.124Z,10.70
2023-04-27T12:12:29.435Z,10.85
2023-04-27T12:15:33.055Z,11.08
2023-04-27T12:18:36.675Z,11.10
2023-04-27T12:21:40.334Z,11.03
2023-04-27T12:24:44.248Z,11.16
2023-04-27T12:27:49.444Z,10.93
2023-04-27T12:30:53.194Z,10.93
2023-04-27T12:33:56.858Z,11.23
2023-04-27T12:37:01.111Z,11.21
2023-04-27T12:40:06.942Z,11.29
2023-04-27T12:43:12.883Z,11.00
2023-04-27T12:46:18.260Z,10.91
2023-04-27T12:49:22.044Z,11.52
2023-04-27T12:52:25.895Z,11.62
2023-04-27T12:55:33.673Z,12.02
2023-04-27T12:58:39.951Z,11.79
2023-04-27T13:01:43.715Z,11.06
2023-04-27T13:04:47.713Z,11.37
2023-04-27T13:07:51.554Z,10.86
2023-04-27T13:10:55.334Z,11.39
2023-04-27T13:14:02.124Z,11.65
2023-04-27T13:17:05.775Z,11.95
2023-04-27T13:20:11.046Z,11.47
2023-04-27T13:23:14.798Z,11.46
2023-04-27T13:26:19.115Z,11.68
2023-04-27T13:29:25.474Z,11.40
2023-04-27T13:32:29.315Z,10.85
2023-04-27T13:35:33.088Z,10.95
2023-04-27T13:38:37.145Z,11.05
2023-04-27T13:41:40.846Z,10.97
2023-04-27T13:44:45.779Z,10.83
2023-04-27T13:47:49.401Z,10.38
2023-04-27T13:50:53.030Z,10.59
2023-04-27T13:53:56.653Z,10.36
2023-04-27T13:57:00.232Z,10.28
2023-04-27T14:00:08.065Z,10.39
2023-04-27T14:03:12.024Z,10.40
2023-04-27T14:06:16.350Z,10.41
2023-04-27T14:09:20.424Z,10.49
2023-04-27T14:12:24.026Z,10.56
2023-04-27T14:15:29.270Z,11.04
2023-04-27T14:18:33.457Z,11.58
2023-04-27T14:21:37.141Z,11.75
2023-04-27T14:24:41.208Z,11.24
2023-04-27T14:27:45.670Z,11.05
2023-04-27T14:30:50.649Z,10.98
2023-04-27T14:33:54.262Z,11.20
2023-04-27T14:36:57.975Z,10.90
2023-04-27T14:40:03.282Z,11.02
2023-04-27T14:43:06.890Z,10.93
2023-04-27T14:46:20.231Z,10.93
2023-04-27T14:49:24.271Z,10.84
2023-04-27T14:52:29.145Z,10.92
2023-04-27T14:55:32.784Z,10.90
2023-04-27T14:58:36.618Z,11.03
2023-04-27T15:01:41.688Z,10.78
2023-04-27T15:04:45.431Z,10.71
2023-04-27T15:07:49.184Z,10.68
2023-04-27T15:10:53.997Z,10.54
2023-04-27T15:13:57.694Z,10.38
2023-04-27T15:17:02.695Z,10.23
2023-04-27T15:20:08.312Z,10.34
2023-04-27T15:23:11.985Z,10.30
2023-04-27T15:26:15.598Z,10.69
2023-04-27T15:29:19.199Z,10.53
2023-04-27T15:32:29.860Z,10.22
2023-04-27T15:35:33.762Z,10.06
2023-04-27T15:38:37.469Z,10.21
2023-04-27T15:41:41.678Z,10.44
2023-04-27T15:44:45.277Z,10.31
2023-04-27T15:47:50.289Z,10.09
2023-04-27T15:50:54.059Z,10.12
2023-04-27T15:53:57.681Z,10.18
2023-04-27T15:57:04.082Z,10.33
2023-04-27T16:00:10.468Z,10.23
2023-04-27T16:03:15.902Z,10.20
2023-04-27T16:06:19.734Z,10.11
2023-04-27T16:09:25.748Z,10.24
2023-04-27T16:12:30.780Z,10.26
2023-04-27T16:15:34.465Z,10.35
2023-04-27T16:18:39.512Z,10.24
2023-04-27T16:21:43.311Z,10.08
2023-04-27T16:24:47.400Z,9.79
2023-04-27T16:27:51.054Z,9.72
2023-04-27T16:30:54.758Z,9.71
2023-04-27T16:33:59.895Z,9.64
2023-04-27T16:37:03.522Z,9.53
2023-04-27T16:40:09.206Z,9.51
2023-04-27T16:43:12.896Z,9.40
2023-04-27T16:46:17.195Z,9.56
2023-04-27T16:49:22.348Z,9.48
2023-04-27T16:52:26.145Z,9.48
2023-04-27T16:55:31.285Z,9.60
2023-04-27T16:58:36.226Z,9.52
2023-04-27T17:01:40.471Z,9.48
2023-04-27T17:04:46.043Z,9.28
2023-04-27T17:07:49.794Z,9.21
2023-04-27T17:10:54.544Z,9.22
2023-04-27T17:13:58.163Z,9.26
2023-04-27T17:17:01.819Z,9.23
2023-04-27T17:20:09.425Z,9.32
2023-04-27T17:23:13.069Z,9.35
2023-04-27T17:26:19.944Z,9.42
2023-04-27T17:29:23.720Z,9.38
2023-04-27T17:32:27.348Z,9.16
2023-04-27T17:35:33.041Z,9.01
2023-04-27T17:38:37.173Z,8.98
2023-04-27T17:41:40.872Z,8.96
2023-04-27T17:44:44.601Z,8.91
2023-04-27T17:47:50.580Z,8.91
2023-04-27T17:50:55.798Z,8.96
2023-04-27T17:53:59.517Z,8.80
2023-04-27T17:57:03.188Z,8.71
2023-04-27T18:00:09.356Z,8.74
2023-04-27T18:03:13.454Z,8.58
2023-04-27T18:06:19.497Z,8.58
2023-04-27T18:09:23.581Z,8.50
2023-04-27T18:12:27.369Z,8.40
2023-04-27T18:15:35.997Z,8.24
2023-04-27T18:18:39.634Z,8.20
2023-04-27T18:21:44.956Z,8.17
2023-04-27T18:24:48.740Z,8.09
2023-04-27T18:27:55.559Z,7.98
2023-04-27T18:30:59.335Z,7.95
2023-04-27T18:34:03.127Z,7.98
2023-04-27T18:37:08.149Z,7.92
2023-04-27T18:40:13.590Z,7.81
2023-04-27T18:43:17.262Z,7.70
2023-04-27T18:46:21.189Z,7.69
2023-04-27T18:49:24.983Z,7.58
2023-04-27T18:52:30.156Z,7.58
2023-04-27T18:55:34.014Z,7.49
2023-04-27T18:58:37.974Z,7.45
2023-04-27T19:01:41.865Z,7.41
2023-04-27T19:04:52.951Z,7.35
2023-04-27T19:08:02.198Z,7.29
2023-04-27T19:11:05.841Z,7.18
2023-04-27T19:14:09.505Z,7.18
2023-04-27T19:17:13.121Z,7.10
2023-04-27T19:20:16.755Z,7.06
2023-04-27T19:23:21.944Z,6.92
2023-04-27T19:26:26.291Z,6.84
2023-04-27T19:29:31.429Z,6.81
2023-04-27T19:32:35.319Z,6.77
2023-04-27T19:35:39.214Z,6.74
2023-04-27T19:38:44.288Z,6.67
2023-04-27T19:41:47.919Z,6.54
2023-04-27T19:44:51.521Z,6.54
2023-04-27T19:47:55.665Z,6.47
2023-04-27T19:50:59.339Z,6.39
2023-04-27T19:54:04.489Z,6.33
2023-04-27T19:57:08.074Z,6.31
2023-04-27T20:00:13.269Z,6.32
2023-04-27T20:03:17.150Z,6.29
2023-04-27T20:06:21.770Z,6.28
2023-04-27T20:09:26.839Z,6.26
2023-04-27T20:15:38.872Z,6.17
2023-04-27T20:18:45.310Z,6.19
2023-04-27T20:21:49.051Z,6.20
2023-04-27T20:24:59.070Z,6.15
2023-04-27T20:28:02.915Z,6.16
2023-04-27T20:31:07.083Z,6.14
2023-04-27T20:34:11.361Z,6.13
2023-04-27T20:37:17.340Z,6.11
2023-04-27T20:40:22.939Z,6.10
2023-04-27T20:43:27.411Z,6.08
2023-04-27T20:46:34.250Z,6.07
2023-04-27T20:49:38.020Z,6.05
2023-04-27T20:52:41.792Z,6.03
2023-04-27T20:55:47.412Z,6.00
2023-04-27T20:58:51.050Z,5.98
2023-04-27T21:01:54.815Z,5.94
2023-04-27T21:04:58.614Z,5.93
2023-04-27T21:08:02.353Z,5.91
2023-04-27T21:11:07.751Z,5.88
2023-04-27T21:14:11.344Z,5.88
2023-04-27T21:17:15.334Z,5.88
2023-04-27T21:20:19.347Z,5.83
2023-04-27T21:23:23.057Z,5.82
2023-04-27T21:26:28.035Z,5.79
2023-04-27T21:29:31.686Z,5.76
2023-04-27T21:32:35.285Z,5.72
2023-04-27T21:35:38.805Z,5.67
2023-04-27T21:38:42.376Z,5.65
2023-04-27T21:41:47.302Z,5.62
2023-04-27T21:44:50.925Z,5.58
2023-04-27T21:47:54.737Z,5.53
2023-04-27T21:50:58.306Z,5.47
2023-04-27T21:54:02.249Z,5.43
2023-04-27T21:57:07.480Z,5.38
2023-04-27T22:00:14.603Z,5.36
2023-04-27T22:03:18.358Z,5.28
2023-04-27T22:06:22.076Z,5.20
2023-04-27T22:09:25.677Z,5.13
2023-04-27T22:12:30.733Z,5.10
2023-04-27T22:15:34.853Z,5.04
2023-04-27T22:18:38.963Z,5.00
2023-04-27T22:21:42.578Z,4.96
2023-04-27T22:24:46.441Z,4.91
2023-04-27T22:27:51.496Z,4.86
2023-04-27T22:30:56.707Z,4.81
2023-04-27T22:34:00.539Z,4.78
2023-04-27T22:37:04.437Z,4.71
2023-04-27T22:40:10.294Z,4.68
2023-04-27T22:43:15.433Z,4.63
2023-04-27T22:46:19.047Z,4.59
2023-04-27T22:49:22.986Z,4.58
2023-04-27T22:52:26.864Z,4.55
2023-04-27T22:55:30.799Z,4.50
2023-04-27T22:58:36.693Z,4.47
2023-04-27T23:01:40.622Z,4.43
2023-04-27T23:04:44.574Z,4.41
2023-04-27T23:07:48.125Z,4.37
2023-04-27T23:10:53.243Z,4.35
2023-04-27T23:13:58.932Z,4.33
2023-04-27T23:17:02.883Z,4.27
2023-04-27T23:20:24.095Z,4.23
2023-04-27T23:23:30.973Z,4.20
2023-04-27T23:26:34.642Z,4.17
2023-04-27T23:29:39.897Z,4.17
2023-04-27T23:32:43.610Z,4.12
2023-04-27T23:35:47.178Z,4.10
2023-04-27T23:38:51.366Z,4.06
2023-04-27T23:41:55.172Z,4.04
2023-04-27T23:45:00.391Z,4.00
2023-04-27T23:48:04.077Z,3.99
2023-04-27T23:51:08.078Z,3.94
2023-04-27T23:54:11.614Z,3.91
2023-04-27T23:57:16.986Z,3.89
